Terminal Aerodrome Forecast
Issued by NWS Honolulu, HI

Current Version | Previous Version | Text Only | Print | Product List | Glossary On
Versions: 1 2 3 4 5 6 7 8 9 10 11 12 13 14 15 16 17 18 19 20 21 22 23 24 25
000
FTPA31 PHFO 261752
TAFHNL
TAF
PHNL 261752Z 2618/2724 05008KT P6SM VCSH SCT035 BKN060
     FM262000 05014G22KT P6SM SCT035 BKN060
     FM270600 05011G17KT P6SM FEW035 SCT060
     FM271500 08008KT P6SM FEW035 SCT060=

USA.gov is the U.S. government's official web portal to all federal, state and local government web resources and services.